LiveATC.Net - Listen to live air traffic control over the Internet!


ICAO: KSUX  IATA: SUX   Airport: Sioux Gateway Airport/Col. Bud Day Field
City: Sioux City   State/Province: Iowa
Country: United States   Continent: North America
KSUX METAR Weather: KSUX 171352Z 12006KT 10SM CLR 04/02 A2994 RMK AO2 SLP148 T00390022
KSUX Flight Activity (FlightAware)
KSUX Airport Info   (iFlightPlanner)
KSUX VFR Sectional Chart   (iFlightPlanner) 
KSUX IFR Low Chart   (iFlightPlanner) 

KSUX Twr/App/ZMP
Feed Status: UP   Listeners: 0
Listen in your browser - HTML5 player (in browser, HTML5)
Click here to listen with your own player (launches your MP3 player)
KSUX Twr/App/ZMP Audio Archives
FacilityFrequency
Emergency/Guard121.500
Sioux City Approach/Departure124.600
Sioux City Tower118.700
ZMP Minneapolis Center (Low)125.025

NOTICE

Unauthorized use prohibited. See LiveATC.net Terms of Service


Airport/ARTCC Code
Frequency Search
(e.g., 124.400, 128.75)
Site-wide search
 


Browse LiveATC Feeds
Top 50 LiveATC Feeds
LiveATC Feed Map
Bad Weather Areas

LiveATC FAQ
Offer LiveATC feed
Contact LiveATC.net
Press Inquiries

LiveATC on iPhone
LiveATC on Android

Windows Phone
Windows 8/10

LiveATC Mobile
(Mobile browser)

ATC Audio Archives
Interesting Recordings

LiveATC Forums


Home Page
About LiveATC.net
Make a Donation
Terms of Use
Privacy Policy

Canadian Air Freqs

AIRMETs/SIGMETs

FAA Airport Status
Nat'l Airspace Status
Arrival Demand Charts


Server Software By:
Icecast.org
Liquidsoap